createdAt,value
2017-11-16T00:01:17.815Z,101922.88
2017-11-16T00:03:46.126Z,101922.56
2017-11-16T00:06:14.128Z,101920.97
2017-11-16T00:08:42.048Z,101918.41
2017-11-16T00:11:09.973Z,101928.09
2017-11-16T00:13:37.910Z,101916.91
2017-11-16T00:16:05.842Z,101914.88
2017-11-16T00:18:33.805Z,101918.55
2017-11-16T00:21:01.738Z,101916.90
2017-11-16T00:23:29.772Z,101923.65
2017-11-16T00:25:57.835Z,101925.20
2017-11-16T00:28:25.766Z,101925.40
2017-11-16T00:30:53.713Z,101927.70
2017-11-16T00:33:21.645Z,101921.16
2017-11-16T00:35:49.607Z,101927.94
2017-11-16T00:38:17.522Z,101931.00
2017-11-16T00:40:45.467Z,101927.63
2017-11-16T00:43:13.404Z,101922.14
2017-11-16T00:45:41.321Z,101926.19
2017-11-16T00:48:09.314Z,101927.34
2017-11-16T00:50:37.726Z,101935.05
2017-11-16T00:53:06.013Z,101929.88
2017-11-16T00:55:34.090Z,101934.11
2017-11-16T00:58:02.153Z,101933.97
2017-11-16T01:00:30.121Z,101929.48
2017-11-16T01:02:58.037Z,101928.99
2017-11-16T01:05:25.989Z,101927.58
2017-11-16T01:07:53.931Z,101928.98
2017-11-16T01:10:21.956Z,101928.23
2017-11-16T01:12:49.922Z,101929.92
2017-11-16T01:15:17.868Z,101930.84
2017-11-16T01:17:45.798Z,101936.97
2017-11-16T01:20:13.720Z,101929.30
2017-11-16T01:22:42.466Z,101926.58
2017-11-16T01:25:10.448Z,101926.58
2017-11-16T01:27:38.440Z,101927.66
2017-11-16T01:30:06.365Z,101927.63
2017-11-16T01:32:34.568Z,101920.38
2017-11-16T01:35:02.495Z,101921.18
2017-11-16T01:37:30.434Z,101911.34
2017-11-16T01:39:58.801Z,101910.87
2017-11-16T01:42:26.747Z,101907.98
2017-11-16T01:44:54.694Z,101907.38
2017-11-16T01:47:22.613Z,101904.56
2017-11-16T01:49:50.589Z,101901.51
2017-11-16T01:52:18.698Z,101904.90
2017-11-16T01:54:46.632Z,101904.55
2017-11-16T01:57:14.700Z,101898.34
2017-11-16T01:59:43.012Z,101898.71
2017-11-16T02:02:22.719Z,101908.97
2017-11-16T02:04:50.623Z,101897.98
2017-11-16T02:07:18.599Z,101895.95
2017-11-16T02:09:46.572Z,101891.86
2017-11-16T02:12:14.500Z,101901.36
2017-11-16T02:14:42.815Z,101896.20
2017-11-16T02:17:10.762Z,101898.57
2017-11-16T02:19:38.693Z,101895.09
2017-11-16T02:22:06.624Z,101898.37
2017-11-16T02:24:34.587Z,101890.77
2017-11-16T02:27:02.558Z,101892.39
2017-11-16T02:29:30.473Z,101887.69
2017-11-16T02:31:59.312Z,101884.23
2017-11-16T02:34:27.239Z,101884.44
2017-11-16T02:36:55.653Z,101880.68
2017-11-16T02:39:23.739Z,101881.23
2017-11-16T02:41:51.665Z,101880.89
2017-11-16T02:44:19.611Z,101890.53
2017-11-16T02:46:47.544Z,101890.45
2017-11-16T02:49:15.500Z,101893.11
2017-11-16T02:51:43.429Z,101888.32
2017-11-16T02:54:11.352Z,101890.78
2017-11-16T02:56:39.276Z,101880.63
2017-11-16T02:59:07.592Z,101876.52
2017-11-16T03:01:35.753Z,101880.45
2017-11-16T03:04:03.698Z,101883.66
2017-11-16T03:06:31.777Z,101888.17
2017-11-16T03:09:00.161Z,101877.41
2017-11-16T03:11:28.094Z,101877.73
2017-11-16T03:13:56.181Z,101876.94
2017-11-16T03:16:24.116Z,101873.44
2017-11-16T03:18:52.028Z,101868.30
2017-11-16T03:21:20.350Z,101872.75
2017-11-16T03:23:48.276Z,101867.45
2017-11-16T03:26:16.205Z,101870.97
2017-11-16T03:28:44.225Z,101868.83
2017-11-16T03:31:12.224Z,101869.92
2017-11-16T03:33:40.174Z,101871.57
2017-11-16T03:36:08.416Z,101870.47
2017-11-16T03:38:36.888Z,101870.50
2017-11-16T03:41:04.822Z,101869.33
2017-11-16T03:43:32.724Z,101876.50
2017-11-16T03:46:00.645Z,101872.84
2017-11-16T03:48:28.550Z,101872.41
2017-11-16T03:50:56.605Z,101872.36
2017-11-16T03:53:24.525Z,101874.89
2017-11-16T03:55:52.469Z,101878.44
2017-11-16T03:58:20.390Z,101880.31
2017-11-16T04:00:48.517Z,101878.20
2017-11-16T04:03:17.005Z,101878.62
2017-11-16T04:05:44.923Z,101876.81
2017-11-16T04:08:12.935Z,101881.41
2017-11-16T04:10:40.877Z,101874.11
2017-11-16T04:13:08.817Z,101877.66
2017-11-16T04:15:36.757Z,101878.59
2017-11-16T04:18:04.684Z,101873.16
2017-11-16T04:20:32.668Z,101866.55
2017-11-16T04:23:00.632Z,101868.92
2017-11-16T04:25:28.539Z,101866.68
2017-11-16T04:27:56.471Z,101862.25
2017-11-16T04:30:24.373Z,101865.61
2017-11-16T04:32:52.415Z,101864.67
2017-11-16T04:35:20.372Z,101863.14
2017-11-16T04:37:48.358Z,101865.48
2017-11-16T04:40:16.325Z,101866.78
2017-11-16T04:42:44.296Z,101865.50
2017-11-16T04:45:12.257Z,101864.88
2017-11-16T04:47:40.337Z,101862.95
2017-11-16T04:50:08.309Z,101862.79
2017-11-16T04:52:36.306Z,101864.03
2017-11-16T04:55:04.233Z,101868.25
2017-11-16T04:57:32.321Z,101862.54
2017-11-16T05:00:00.650Z,101863.27
2017-11-16T05:02:28.580Z,101862.28
2017-11-16T05:04:56.616Z,101866.69
2017-11-16T05:07:24.579Z,101859.37
2017-11-16T05:09:52.524Z,101858.23
2017-11-16T05:12:20.441Z,101855.08
2017-11-16T05:14:48.774Z,101859.95
2017-11-16T05:17:16.727Z,101857.76
2017-11-16T05:19:44.643Z,101858.66
2017-11-16T05:22:12.554Z,101852.99
2017-11-16T05:24:40.470Z,101856.77
2017-11-16T05:27:08.375Z,101851.81
2017-11-16T05:29:36.723Z,101848.85
2017-11-16T05:32:04.628Z,101858.08
2017-11-16T05:34:32.557Z,101845.53
2017-11-16T05:37:00.478Z,101853.72
2017-11-16T05:39:28.376Z,101850.00
2017-11-16T05:41:56.315Z,101853.19
2017-11-16T05:44:24.221Z,101855.36
2017-11-16T05:46:52.138Z,101855.34
2017-11-16T05:49:20.064Z,101850.40
2017-11-16T05:51:47.993Z,101853.73
2017-11-16T05:54:15.921Z,101858.59
2017-11-16T05:56:43.834Z,101856.44
2017-11-16T05:59:11.836Z,101858.44
2017-11-16T06:01:39.781Z,101861.85
2017-11-16T06:04:07.696Z,101863.96
2017-11-16T06:06:35.999Z,101865.84
2017-11-16T06:09:03.956Z,101866.19
2017-11-16T06:11:31.889Z,101865.84
2017-11-16T06:13:59.805Z,101863.50
2017-11-16T06:16:27.723Z,101862.05
2017-11-16T06:18:55.637Z,101868.59
2017-11-16T06:21:23.578Z,101870.28
2017-11-16T06:23:51.910Z,101865.60
2017-11-16T06:26:19.827Z,101867.93
2017-11-16T06:28:48.176Z,101870.63
2017-11-16T06:31:16.096Z,101863.85
2017-11-16T06:33:44.004Z,101876.47
2017-11-16T06:36:11.950Z,101869.97
2017-11-16T06:38:39.957Z,101873.14
2017-11-16T06:41:07.877Z,101875.75
2017-11-16T06:43:35.792Z,101873.03
2017-11-16T06:46:03.717Z,101871.48
2017-11-16T06:48:31.638Z,101878.52
2017-11-16T06:50:59.596Z,101878.44
2017-11-16T06:53:27.520Z,101880.52
2017-11-16T06:55:55.440Z,101874.19
2017-11-16T06:58:23.752Z,101883.28
2017-11-16T07:00:51.688Z,101886.11
2017-11-16T07:03:19.597Z,101884.72
2017-11-16T07:05:47.506Z,101885.51
2017-11-16T07:08:15.420Z,101892.25
2017-11-16T07:10:43.339Z,101889.39
2017-11-16T07:13:11.253Z,101892.02
2017-11-16T07:15:39.208Z,101896.44
2017-11-16T07:18:07.521Z,101899.02
2017-11-16T07:20:35.436Z,101893.97
2017-11-16T07:23:03.387Z,101895.85
2017-11-16T07:25:31.301Z,101891.61
2017-11-16T07:27:59.605Z,101890.41
2017-11-16T07:30:27.536Z,101889.16
2017-11-16T07:32:55.842Z,101894.08
2017-11-16T07:35:24.695Z,101889.69
2017-11-16T07:37:52.638Z,101890.72
2017-11-16T07:40:20.565Z,101901.13
2017-11-16T07:42:48.844Z,101903.00
2017-11-16T07:45:16.769Z,101898.98
2017-11-16T07:47:44.694Z,101900.16
2017-11-16T07:50:12.620Z,101896.91
2017-11-16T07:52:40.938Z,101894.19
2017-11-16T07:55:08.857Z,101890.42
2017-11-16T07:57:37.187Z,101887.12
2017-11-16T08:00:05.101Z,101894.83
2017-11-16T08:02:33.417Z,101894.75
2017-11-16T08:05:01.345Z,101891.72
2017-11-16T08:07:29.264Z,101887.01
2017-11-16T08:09:57.185Z,101883.81
2017-11-16T08:12:25.498Z,101886.12
2017-11-16T08:14:53.399Z,101893.83
2017-11-16T08:17:21.326Z,101890.45
2017-11-16T08:19:49.257Z,101884.77
2017-11-16T08:22:17.177Z,101883.44
2017-11-16T08:24:45.101Z,101882.66
2017-11-16T08:27:13.404Z,101875.66
2017-11-16T08:29:41.329Z,101876.55
2017-11-16T08:32:09.255Z,101872.09
2017-11-16T08:34:37.245Z,101878.98
2017-11-16T08:37:05.156Z,101880.16
2017-11-16T08:39:33.473Z,101888.13
2017-11-16T08:42:01.413Z,101884.25
2017-11-16T08:44:29.336Z,101884.19
2017-11-16T08:46:57.293Z,101882.83
2017-11-16T08:49:25.204Z,101886.48
2017-11-16T08:51:53.523Z,101886.49
2017-11-16T08:54:21.441Z,101891.93
2017-11-16T08:56:49.742Z,101887.28
2017-11-16T08:59:17.672Z,101884.05
2017-11-16T09:01:45.581Z,101882.59
2017-11-16T09:04:13.613Z,101878.09
2017-11-16T09:06:41.956Z,101877.57
2017-11-16T09:09:09.881Z,101881.75
2017-11-16T09:11:38.234Z,101889.00
2017-11-16T09:14:06.183Z,101889.33
2017-11-16T09:16:34.117Z,101895.05
2017-11-16T09:19:02.046Z,101886.41
2017-11-16T09:21:29.944Z,101881.77
2017-11-16T09:23:58.268Z,101884.44
2017-11-16T09:26:26.168Z,101885.34
2017-11-16T09:28:54.099Z,101882.34
2017-11-16T09:31:22.024Z,101883.87
2017-11-16T09:33:49.941Z,101877.81
2017-11-16T09:36:17.868Z,101875.23
2017-11-16T09:38:45.771Z,101871.76
2017-11-16T09:41:13.689Z,101874.70
2017-11-16T09:43:42.016Z,101868.73
2017-11-16T09:46:09.925Z,101864.62
2017-11-16T09:48:38.267Z,101862.69
2017-11-16T09:51:06.188Z,101856.78
2017-11-16T09:53:34.122Z,101862.38
2017-11-16T09:56:02.113Z,101856.98
2017-11-16T09:58:30.420Z,101851.25
2017-11-16T10:00:58.353Z,101855.16
2017-11-16T10:03:26.653Z,101853.19
2017-11-16T10:05:54.560Z,101846.04
2017-11-16T10:08:22.477Z,101844.16
2017-11-16T10:10:50.399Z,101838.96
2017-11-16T10:13:18.378Z,101838.89
2017-11-16T10:15:46.277Z,101831.14
2017-11-16T10:18:14.582Z,101832.60
2017-11-16T10:20:42.498Z,101830.75
2017-11-16T10:23:10.401Z,101828.48
2017-11-16T10:25:38.344Z,101824.47
2017-11-16T10:28:06.660Z,101825.70
2017-11-16T10:30:34.568Z,101820.16
2017-11-16T10:33:02.488Z,101826.28
2017-11-16T10:35:30.403Z,101823.73
2017-11-16T10:37:58.332Z,101816.98
2017-11-16T10:40:26.241Z,101822.71
2017-11-16T10:42:54.149Z,101825.98
2017-11-16T10:45:22.087Z,101828.43
2017-11-16T10:47:50.011Z,101832.36
2017-11-16T10:50:17.971Z,101829.47
2017-11-16T10:52:45.885Z,101824.42
2017-11-16T10:55:13.809Z,101828.20
2017-11-16T10:57:41.754Z,101825.42
2017-11-16T11:00:10.061Z,101820.16
2017-11-16T11:02:37.997Z,101826.08
2017-11-16T11:05:06.355Z,101815.44
2017-11-16T11:07:34.260Z,101814.53
2017-11-16T11:10:02.295Z,101815.02
2017-11-16T11:12:30.619Z,101812.03
2017-11-16T11:14:58.556Z,101818.77
2017-11-16T11:17:26.866Z,101817.75
2017-11-16T11:19:54.809Z,101811.66
2017-11-16T11:22:23.136Z,101806.73
2017-11-16T11:24:51.098Z,101810.16
2017-11-16T11:27:19.032Z,101811.14
2017-11-16T11:29:46.962Z,101808.16
2017-11-16T11:32:14.885Z,101801.51
2017-11-16T11:34:42.804Z,101798.89
2017-11-16T11:37:10.725Z,101795.36
2017-11-16T11:39:38.663Z,101793.10
2017-11-16T11:42:06.969Z,101795.74
2017-11-16T11:44:34.904Z,101793.09
2017-11-16T11:47:03.268Z,101789.20
2017-11-16T11:49:31.586Z,101786.92
2017-11-16T11:51:59.519Z,101784.35
2017-11-16T11:54:27.838Z,101790.80
2017-11-16T11:56:55.746Z,101791.20
2017-11-16T11:59:23.672Z,101776.91
2017-11-16T12:01:51.593Z,101768.55
2017-11-16T12:04:19.517Z,101771.30
2017-11-16T12:06:47.428Z,101764.09
2017-11-16T12:09:15.747Z,101774.44
2017-11-16T12:11:43.666Z,101771.03
2017-11-16T12:14:11.640Z,101771.94
2017-11-16T12:16:39.585Z,101768.84
2017-11-16T12:19:07.520Z,101770.33
2017-11-16T12:21:35.434Z,101762.23
2017-11-16T12:24:03.360Z,101764.34
2017-11-16T12:26:31.283Z,101757.67
2017-11-16T12:28:59.213Z,101753.03
2017-11-16T12:31:27.126Z,101750.12
2017-11-16T12:33:55.442Z,101764.45
2017-11-16T12:36:23.366Z,101755.53
2017-11-16T12:38:51.282Z,101749.59
2017-11-16T12:41:19.222Z,101739.10
2017-11-16T12:43:47.526Z,101741.06
2017-11-16T12:46:15.450Z,101738.84
2017-11-16T12:48:43.372Z,101738.07
2017-11-16T12:51:11.296Z,101735.22
2017-11-16T12:53:39.248Z,101741.23
2017-11-16T12:56:07.159Z,101737.41
2017-11-16T12:58:35.064Z,101733.95
2017-11-16T13:01:02.987Z,101737.59
2017-11-16T13:03:30.898Z,101727.55
2017-11-16T13:05:59.200Z,101735.84
2017-11-16T13:08:27.520Z,101727.56
2017-11-16T13:10:55.431Z,101723.46
2017-11-16T13:13:23.380Z,101718.94
2017-11-16T13:15:51.302Z,101717.05
2017-11-16T13:18:19.634Z,101713.08
2017-11-16T13:20:47.556Z,101711.09
2017-11-16T13:23:15.479Z,101711.51
2017-11-16T13:25:43.405Z,101695.53
2017-11-16T13:28:11.337Z,101690.08
2017-11-16T13:30:39.672Z,101682.78
2017-11-16T13:33:07.585Z,101673.23
2017-11-16T13:35:35.888Z,101670.86
2017-11-16T13:38:03.836Z,101673.95
2017-11-16T13:40:32.172Z,101668.44
2017-11-16T13:43:00.100Z,101663.80
2017-11-16T13:45:28.008Z,101653.41
2017-11-16T13:47:56.023Z,101654.18
2017-11-16T13:50:23.962Z,101660.11
2017-11-16T13:52:51.873Z,101641.11
2017-11-16T13:55:19.812Z,101648.84
2017-11-16T13:57:47.721Z,101646.52
2017-11-16T14:00:15.628Z,101647.88
2017-11-16T14:02:43.558Z,101636.87
2017-11-16T14:05:11.468Z,101640.98
2017-11-16T14:07:39.439Z,101637.15
2017-11-16T14:10:07.349Z,101642.22
2017-11-16T14:12:35.263Z,101640.60
2017-11-16T14:15:03.194Z,101645.16
2017-11-16T14:17:31.110Z,101639.02
2017-11-16T14:19:59.049Z,101639.34
2017-11-16T14:22:26.969Z,101641.55
2017-11-16T14:24:56.689Z,101632.37
2017-11-16T14:27:24.611Z,101632.86
2017-11-16T14:29:52.526Z,101634.90
2017-11-16T14:32:20.862Z,101628.80
2017-11-16T14:34:48.808Z,101624.91
2017-11-16T14:37:16.725Z,101621.25
2017-11-16T14:39:45.057Z,101623.41
2017-11-16T14:42:12.975Z,101622.70
2017-11-16T14:44:41.294Z,101621.60
2017-11-16T14:47:09.199Z,101624.39
2017-11-16T14:49:37.132Z,101625.80
2017-11-16T14:52:05.034Z,101622.55
2017-11-16T14:54:32.952Z,101625.77
2017-11-16T14:57:00.872Z,101622.14
2017-11-16T14:59:28.802Z,101618.15
2017-11-16T15:01:56.809Z,101628.06
2017-11-16T15:04:24.728Z,101624.75
2017-11-16T15:06:52.644Z,101626.47
2017-11-16T15:09:20.564Z,101624.75
2017-11-16T15:11:48.467Z,101626.09
2017-11-16T15:14:16.411Z,101634.34
2017-11-16T15:16:44.344Z,101637.98
2017-11-16T15:19:12.661Z,101640.77
2017-11-16T15:21:40.590Z,101641.78
2017-11-16T15:24:08.904Z,101638.84
2017-11-16T15:26:36.854Z,101646.09
2017-11-16T15:29:04.760Z,101647.72
2017-11-16T15:31:32.670Z,101641.73
2017-11-16T15:34:00.994Z,101640.23
2017-11-16T15:36:28.922Z,101640.34
2017-11-16T15:38:56.857Z,101636.70
2017-11-16T15:41:24.769Z,101637.03
2017-11-16T15:43:52.694Z,101636.38
2017-11-16T15:46:20.625Z,101625.89
2017-11-16T15:48:48.537Z,101631.13
2017-11-16T15:51:16.503Z,101621.11
2017-11-16T15:53:44.423Z,101627.44
2017-11-16T15:56:12.333Z,101631.38
2017-11-16T15:58:40.268Z,101630.31
2017-11-16T16:01:08.168Z,101629.87
2017-11-16T16:03:36.100Z,101624.07
2017-11-16T16:06:03.995Z,101622.88
2017-11-16T16:08:31.930Z,101626.41
2017-11-16T16:10:59.897Z,101623.66
2017-11-16T16:13:27.819Z,101625.21
2017-11-16T16:15:55.740Z,101621.41
2017-11-16T16:18:23.638Z,101614.08
2017-11-16T16:20:51.545Z,101611.95
2017-11-16T16:23:19.458Z,101606.59
2017-11-16T16:25:47.365Z,101602.39
2017-11-16T16:28:15.766Z,101598.85
2017-11-16T16:30:43.677Z,101596.50
2017-11-16T16:33:11.580Z,101595.91
2017-11-16T16:35:39.890Z,101603.02
2017-11-16T16:38:07.826Z,101599.39
2017-11-16T16:40:36.158Z,101600.06
2017-11-16T16:43:04.048Z,101601.22
2017-11-16T16:45:31.947Z,101601.32
2017-11-16T16:48:00.271Z,101606.66
2017-11-16T16:50:28.279Z,101604.73
2017-11-16T16:52:56.194Z,101602.44
2017-11-16T16:55:24.111Z,101607.73
2017-11-16T16:57:52.034Z,101609.03
2017-11-16T17:00:19.945Z,101609.22
2017-11-16T17:02:47.866Z,101610.47
2017-11-16T17:05:15.808Z,101606.56
2017-11-16T17:07:44.117Z,101606.59
2017-11-16T17:10:12.025Z,101614.09
2017-11-16T17:12:39.944Z,101601.77
2017-11-16T17:15:07.840Z,101597.31
2017-11-16T17:17:35.767Z,101598.81
2017-11-16T17:20:03.674Z,101599.67
2017-11-16T17:22:31.577Z,101598.13
2017-11-16T17:24:59.902Z,101591.64
2017-11-16T17:27:27.821Z,101590.25
2017-11-16T17:29:56.145Z,101582.44
2017-11-16T17:32:24.065Z,101585.27
2017-11-16T17:34:51.984Z,101587.91
2017-11-16T17:37:19.900Z,101574.98
2017-11-16T17:39:48.238Z,101579.83
2017-11-16T17:42:16.944Z,101560.36
2017-11-16T17:44:44.837Z,101568.05
2017-11-16T17:47:13.131Z,101555.95
2017-11-16T17:49:41.053Z,101562.28
2017-11-16T17:52:08.964Z,101550.64
2017-11-16T17:54:36.896Z,101547.64
2017-11-16T17:57:04.801Z,101548.52
2017-11-16T17:59:32.725Z,101548.57
2017-11-16T18:02:00.654Z,101551.17
2017-11-16T18:04:28.565Z,101547.20
2017-11-16T18:06:56.503Z,101549.27
2017-11-16T18:09:24.408Z,101544.59
2017-11-16T18:11:52.743Z,101543.56
2017-11-16T18:14:20.665Z,101545.53
2017-11-16T18:16:48.989Z,101543.79
2017-11-16T18:19:16.909Z,101541.77
2017-11-16T18:21:44.824Z,101549.19
2017-11-16T18:24:12.739Z,101559.30
2017-11-16T18:26:40.658Z,101557.86
2017-11-16T18:29:08.571Z,101549.19
2017-11-16T18:31:36.502Z,101554.25
2017-11-16T18:34:04.410Z,101558.14
2017-11-16T18:36:32.327Z,101555.25
2017-11-16T18:39:00.253Z,101555.14
2017-11-16T18:41:28.171Z,101556.34
2017-11-16T18:43:56.105Z,101558.91
2017-11-16T18:46:24.012Z,101568.58
2017-11-16T18:48:51.916Z,101566.99
2017-11-16T18:51:19.857Z,101564.20
2017-11-16T18:53:47.765Z,101554.16
2017-11-16T18:56:16.088Z,101558.00
2017-11-16T18:58:43.985Z,101547.88
2017-11-16T19:01:11.881Z,101547.91
2017-11-16T19:03:39.788Z,101542.91
2017-11-16T19:06:07.692Z,101545.53
2017-11-16T19:08:35.633Z,101545.33
2017-11-16T19:11:03.556Z,101557.25
2017-11-16T19:13:31.856Z,101556.27
2017-11-16T19:15:59.772Z,101549.02
2017-11-16T19:18:27.675Z,101551.44
2017-11-16T19:20:55.609Z,101548.25
2017-11-16T19:23:23.515Z,101550.88
2017-11-16T19:25:51.415Z,101552.36
2017-11-16T19:28:19.322Z,101554.48
2017-11-16T19:30:47.225Z,101552.30
2017-11-16T19:33:15.258Z,101552.27
2017-11-16T19:35:43.165Z,101550.58
2017-11-16T19:38:11.076Z,101553.27
2017-11-16T19:40:38.994Z,101555.28
2017-11-16T19:43:06.925Z,101557.17
2017-11-16T19:45:34.855Z,101556.08
2017-11-16T19:48:02.767Z,101563.08
2017-11-16T19:50:30.709Z,101573.62
2017-11-16T19:52:58.637Z,101555.83
2017-11-16T19:55:26.549Z,101552.53
2017-11-16T19:57:54.473Z,101551.95
2017-11-16T20:00:22.383Z,101549.50
2017-11-16T20:02:50.374Z,101550.33
2017-11-16T20:05:18.293Z,101553.22
2017-11-16T20:07:46.222Z,101555.11
2017-11-16T20:10:14.536Z,101554.64
2017-11-16T20:12:42.470Z,101554.03
2017-11-16T20:15:10.774Z,101550.30
2017-11-16T20:17:38.713Z,101558.38
2017-11-16T20:20:07.051Z,101558.09
2017-11-16T20:22:34.998Z,101563.95
2017-11-16T20:25:02.926Z,101556.13
2017-11-16T20:27:30.866Z,101563.53
2017-11-16T20:29:58.789Z,101557.71
2017-11-16T20:32:26.705Z,101547.48
2017-11-16T20:34:54.645Z,101544.95
2017-11-16T20:40:39.837Z,101546.84
2017-11-16T20:43:13.444Z,101536.91
2017-11-16T20:45:46.805Z,101532.63
2017-11-16T20:51:27.049Z,101537.12
2017-11-16T20:54:11.641Z,101535.13
2017-11-16T20:56:39.564Z,101538.91
2017-11-16T20:59:07.485Z,101540.77
2017-11-16T21:01:35.400Z,101550.33
2017-11-16T21:04:03.309Z,101549.77
2017-11-16T21:06:31.233Z,101549.45
2017-11-16T21:08:59.156Z,101545.42
2017-11-16T21:11:27.071Z,101541.59
2017-11-16T21:13:55.041Z,101542.55
2017-11-16T21:16:22.960Z,101549.70
2017-11-16T21:18:50.874Z,101551.98
2017-11-16T21:21:18.788Z,101539.75
2017-11-16T21:23:46.715Z,101542.44
2017-11-16T21:26:14.685Z,101544.05
2017-11-16T21:28:42.611Z,101541.55
2017-11-16T21:31:10.701Z,101541.38
2017-11-16T21:33:38.630Z,101540.73
2017-11-16T21:36:06.962Z,101543.61
2017-11-16T21:38:34.873Z,101537.93
2017-11-16T21:41:03.213Z,101536.77
2017-11-16T21:43:31.125Z,101533.83
2017-11-16T21:45:59.053Z,101542.20
2017-11-16T21:48:26.968Z,101538.31
2017-11-16T21:50:54.862Z,101538.86
2017-11-16T21:53:22.770Z,101529.20
2017-11-16T21:55:50.677Z,101524.09
2017-11-16T21:58:18.610Z,101532.15
2017-11-16T22:00:46.912Z,101530.58
2017-11-16T22:03:14.825Z,101526.33
2017-11-16T22:05:42.805Z,101535.23
2017-11-16T22:08:10.718Z,101529.70
2017-11-16T22:10:38.649Z,101535.73
2017-11-16T22:13:06.564Z,101531.03
2017-11-16T22:15:34.478Z,101528.42
2017-11-16T22:18:02.538Z,101533.34
2017-11-16T22:20:30.877Z,101534.24
2017-11-16T22:22:58.804Z,101526.57
2017-11-16T22:25:26.712Z,101522.70
2017-11-16T22:27:54.643Z,101524.92
2017-11-16T22:30:22.571Z,101523.79
2017-11-16T22:32:50.482Z,101520.73
2017-11-16T22:35:18.405Z,101523.53
2017-11-16T22:37:46.306Z,101525.30
2017-11-16T22:40:14.205Z,101516.30
2017-11-16T22:42:42.515Z,101518.44
2017-11-16T22:45:10.437Z,101517.14
2017-11-16T22:47:38.758Z,101518.16
2017-11-16T22:50:06.684Z,101516.23
2017-11-16T22:52:34.981Z,101513.66
2017-11-16T22:55:02.894Z,101511.75
2017-11-16T22:57:30.800Z,101512.16
2017-11-16T22:59:59.187Z,101512.48
2017-11-16T23:02:27.095Z,101513.99
2017-11-16T23:04:55.016Z,101508.37
2017-11-16T23:07:23.338Z,101506.95
2017-11-16T23:09:51.446Z,101514.20
2017-11-16T23:12:19.408Z,101509.36
2017-11-16T23:14:47.316Z,101506.78
2017-11-16T23:17:15.249Z,101517.65
2017-11-16T23:19:43.167Z,101516.19
2017-11-16T23:22:11.094Z,101512.55
2017-11-16T23:24:39.020Z,101511.25
2017-11-16T23:27:06.944Z,101516.98
2017-11-16T23:29:35.297Z,101506.25
2017-11-16T23:32:03.267Z,101513.68
2017-11-16T23:34:31.237Z,101503.66
2017-11-16T23:36:59.205Z,101502.36
2017-11-16T23:39:27.244Z,101498.72
2017-11-16T23:41:55.159Z,101499.08
2017-11-16T23:44:23.469Z,101486.98
2017-11-16T23:46:51.365Z,101487.96
2017-11-16T23:49:19.297Z,101484.61
2017-11-16T23:51:47.203Z,101486.57
2017-11-16T23:54:15.129Z,101490.63
2017-11-16T23:56:43.061Z,101490.63
2017-11-16T23:59:10.955Z,101498.22
